Time;durP1;ratioP1;P1;durP2;ratioP2;P2;SDS_P1;SDS_P2;PMS_P1;PMS_P2;Temp;Humidity;BMP_temperature;BMP_pressure;BME280_temperature;BME280_humidity;BME280_pressure;Samples;Min_cycle;Max_cycle;Signal;HPM_P1;HPM_P2
2022/06/02 00:02:21;;;;;;;9.63;6.40;;;;;;;;;;1896176;75;21049;-56
2022/06/02 00:05:07;;;;;;;8.83;6.17;;;;;;;;;;1898267;75;21103;-57
2022/06/02 00:07:37;;;;;;;10.13;6.50;;;;;;;;;;1898367;75;21118;-57
2022/06/02 00:10:13;;;;;;;10.80;6.30;;;;;;;;;;1897191;75;22110;-56
2022/06/02 00:12:47;;;;;;;11.97;6.67;;;;;;;;;;1897033;75;21091;-57
2022/06/02 00:15:25;;;;;;;11.85;6.67;;;;;;;;;;1898375;75;21065;-57
2022/06/02 00:18:03;;;;;;;9.43;6.00;;;;;;;;;;1898485;75;21491;-57
2022/06/02 00:20:36;;;;;;;14.73;7.35;;;;;;;;;;1897905;74;21588;-57
2022/06/02 00:23:15;;;;;;;10.25;6.60;;;;;;;;;;1897847;75;21106;-57
2022/06/02 00:25:45;;;;;;;11.68;6.70;;;;;;;;;;1898363;75;21056;-57
2022/06/02 00:28:33;;;;;;;12.85;6.40;;;;;;;;;;1898372;74;21061;-57
2022/06/02 00:31:09;;;;;;;8.95;6.12;;;;;;;;;;1898345;75;21061;-57
2022/06/02 00:33:48;;;;;;;9.18;6.35;;;;;;;;;;1897361;75;21037;-57
2022/06/02 00:36:20;;;;;;;16.20;8.50;;;;;;;;;;1898336;75;21136;-57
2022/06/02 00:38:50;;;;;;;7.45;6.42;;;;;;;;;;1894062;75;21185;-57
2022/06/02 00:41:23;;;;;;;8.23;6.05;;;;;;;;;;1892059;75;21032;-57
2022/06/02 00:44:02;;;;;;;13.48;7.28;;;;;;;;;;1892247;76;21020;-57
2022/06/02 00:46:35;;;;;;;10.58;7.05;;;;;;;;;;1891226;74;21143;-58
2022/06/02 00:49:11;;;;;;;9.78;7.70;;;;;;;;;;1892260;75;21025;-58
2022/06/02 00:51:43;;;;;;;7.92;6.53;;;;;;;;;;1891825;74;21098;-58
2022/06/02 00:57:31;;;;;;;10.38;6.35;;;;;;;;;;1856600;75;21491;-58
2022/06/02 01:00:17;;;;;;;10.48;6.03;;;;;;;;;;1892095;75;21049;-58
2022/06/02 01:02:53;;;;;;;9.28;6.25;;;;;;;;;;1892086;75;21021;-58
2022/06/02 01:05:23;;;;;;;12.03;6.45;;;;;;;;;;1892067;76;21057;-58
2022/06/02 01:08:00;;;;;;;9.60;6.05;;;;;;;;;;1891933;74;21061;-58
2022/06/02 01:10:35;;;;;;;8.05;6.42;;;;;;;;;;1891388;75;21057;-58
2022/06/02 01:13:08;;;;;;;7.40;5.72;;;;;;;;;;1859557;74;21029;-58
2022/06/02 01:15:56;;;;;;;11.25;6.87;;;;;;;;;;1892082;76;21165;-58
2022/06/02 01:18:29;;;;;;;9.20;7.37;;;;;;;;;;1891681;74;21061;-58
2022/06/02 01:21:16;;;;;;;12.90;7.70;;;;;;;;;;1891391;75;21064;-58
2022/06/02 01:23:49;;;;;;;7.05;6.35;;;;;;;;;;1892225;76;21119;-58
2022/06/02 01:26:18;;;;;;;9.50;6.17;;;;;;;;;;1892160;75;21173;-59
2022/06/02 01:28:52;;;;;;;12.10;7.03;;;;;;;;;;1892253;75;21175;-58
2022/06/02 01:31:28;;;;;;;6.87;6.20;;;;;;;;;;1892150;75;21049;-58
2022/06/02 01:34:07;;;;;;;8.25;5.80;;;;;;;;;;1891823;75;21319;-58
2022/06/02 01:36:37;;;;;;;12.98;7.67;;;;;;;;;;1892237;76;21103;-58
2022/06/02 01:39:10;;;;;;;10.32;6.67;;;;;;;;;;1895142;75;21142;-58
2022/06/02 01:41:43;;;;;;;8.03;6.87;;;;;;;;;;1898210;74;21052;-58
2022/06/02 01:44:16;;;;;;;9.08;7.12;;;;;;;;;;1853920;75;21122;-58
2022/06/02 01:46:49;;;;;;;9.45;6.60;;;;;;;;;;1898274;74;21004;-58
2022/06/02 01:49:22;;;;;;;10.28;6.62;;;;;;;;;;1898305;75;21056;-58
2022/06/02 01:51:52;;;;;;;12.47;6.47;;;;;;;;;;1898010;75;21032;-58
2022/06/02 01:54:38;;;;;;;8.88;6.62;;;;;;;;;;1897424;74;21036;-58
2022/06/02 01:57:09;;;;;;;15.65;7.22;;;;;;;;;;1898359;75;21088;-58
2022/06/02 01:59:51;;;;;;;12.03;7.37;;;;;;;;;;1897008;75;21149;-58
2022/06/02 02:02:23;;;;;;;8.88;6.05;;;;;;;;;;1897331;74;21032;-58
2022/06/02 02:05:05;;;;;;;9.65;6.53;;;;;;;;;;1898206;75;21076;-58
2022/06/02 02:07:54;;;;;;;11.18;6.60;;;;;;;;;;1897688;75;21061;-59
2022/06/02 02:10:33;;;;;;;8.53;5.85;;;;;;;;;;1898285;75;21375;-59
2022/06/02 02:13:20;;;;;;;10.30;6.70;;;;;;;;;;1821623;78;21014;-58
2022/06/02 02:15:59;;;;;;;12.85;6.80;;;;;;;;;;1898297;74;21040;-58
2022/06/02 02:18:47;;;;;;;7.00;6.12;;;;;;;;;;1898411;75;21024;-58
2022/06/02 02:21:20;;;;;;;12.37;7.25;;;;;;;;;;1898233;75;21167;-59
2022/06/02 02:23:59;;;;;;;11.50;7.03;;;;;;;;;;1897724;75;21068;-58
2022/06/02 02:26:32;;;;;;;8.05;6.65;;;;;;;;;;1898190;75;21064;-58
2022/06/02 02:29:08;;;;;;;12.63;6.95;;;;;;;;;;1898264;75;21059;-58
2022/06/02 02:31:38;;;;;;;9.05;6.92;;;;;;;;;;1897056;75;21033;-59
2022/06/02 02:34:08;;;;;;;13.78;7.40;;;;;;;;;;1898373;74;21028;-58
2022/06/02 02:36:54;;;;;;;12.73;6.28;;;;;;;;;;1897364;75;21103;-59
2022/06/02 02:39:24;;;;;;;8.08;6.60;;;;;;;;;;1898251;74;21044;-58
2022/06/02 02:42:03;;;;;;;12.35;6.45;;;;;;;;;;1898242;75;21013;-58
2022/06/02 02:44:34;;;;;;;9.33;6.78;;;;;;;;;;1898119;75;21040;-59
2022/06/02 02:47:04;;;;;;;10.00;6.60;;;;;;;;;;1898303;75;21053;-59
2022/06/02 02:49:40;;;;;;;17.48;7.15;;;;;;;;;;1894365;74;21025;-58
2022/06/02 02:52:13;;;;;;;8.13;6.05;;;;;;;;;;1897863;75;21048;-59
2022/06/02 02:54:43;;;;;;;11.48;6.67;;;;;;;;;;1898046;74;21009;-58
2022/06/02 02:57:13;;;;;;;15.50;6.33;;;;;;;;;;1898412;74;21057;-59
2022/06/02 02:59:55;;;;;;;11.22;6.87;;;;;;;;;;1898355;75;21126;-59
2022/06/02 03:02:25;;;;;;;11.45;6.28;;;;;;;;;;1898332;75;21118;-59
2022/06/02 03:04:54;;;;;;;8.55;5.97;;;;;;;;;;1898204;75;21537;-58
2022/06/02 03:07:23;;;;;;;8.08;5.87;;;;;;;;;;1898522;75;21565;-58
2022/06/02 03:09:59;;;;;;;9.20;6.75;;;;;;;;;;1898387;75;21036;-59
2022/06/02 03:12:29;;;;;;;10.88;6.50;;;;;;;;;;1898215;75;21032;-59
2022/06/02 03:15:01;;;;;;;10.20;6.40;;;;;;;;;;1898361;75;21064;-58
2022/06/02 03:17:31;;;;;;;8.93;6.30;;;;;;;;;;1897920;75;21032;-59
2022/06/02 03:20:04;;;;;;;8.80;6.72;;;;;;;;;;1898473;75;21103;-59
2022/06/02 03:22:34;;;;;;;10.32;6.83;;;;;;;;;;1898320;75;21476;-59
2022/06/02 03:25:04;;;;;;;13.00;6.50;;;;;;;;;;1898405;74;21106;-58
2022/06/02 03:27:40;;;;;;;8.50;6.08;;;;;;;;;;1898130;75;21193;-58
2022/06/02 03:30:10;;;;;;;8.88;5.80;;;;;;;;;;1898025;75;21099;-58
2022/06/02 03:32:56;;;;;;;9.03;6.70;;;;;;;;;;1898052;75;21108;-58
2022/06/02 03:35:29;;;;;;;9.68;6.78;;;;;;;;;;1898319;75;21053;-59
2022/06/02 03:38:08;;;;;;;8.23;5.67;;;;;;;;;;1853542;75;21096;-59
2022/06/02 03:40:54;;;;;;;9.18;6.50;;;;;;;;;;1898223;75;21081;-59
2022/06/02 03:43:24;;;;;;;9.93;5.83;;;;;;;;;;1898333;75;21052;-59
2022/06/02 03:45:57;;;;;;;13.55;6.60;;;;;;;;;;1898296;74;21185;-58
2022/06/02 03:48:33;;;;;;;12.33;5.95;;;;;;;;;;1898472;75;21091;-58
2022/06/02 03:51:05;;;;;;;7.45;6.22;;;;;;;;;;1897847;75;21158;-58
2022/06/02 03:53:39;;;;;;;10.25;6.10;;;;;;;;;;1897704;75;21052;-59
2022/06/02 03:56:20;;;;;;;11.50;6.17;;;;;;;;;;1853559;75;21088;-58
2022/06/02 03:58:56;;;;;;;9.43;6.62;;;;;;;;;;1898337;75;21060;-59
2022/06/02 04:01:29;;;;;;;10.75;6.12;;;;;;;;;;1898327;75;21146;-58
2022/06/02 04:04:08;;;;;;;9.63;6.62;;;;;;;;;;1898350;75;21137;-59
2022/06/02 04:06:54;;;;;;;15.32;8.98;;;;;;;;;;1897464;74;21107;-59
2022/06/02 04:09:24;;;;;;;12.03;5.75;;;;;;;;;;1898273;75;21118;-58
2022/06/02 04:15:13;;;;;;;12.53;5.33;;;;;;;;;;1898473;75;21072;-58
2022/06/02 04:17:43;;;;;;;13.20;6.87;;;;;;;;;;1896528;75;21110;-58
2022/06/02 04:20:37;;;;;;;7.42;5.42;;;;;;;;;;1898382;75;21087;-59
2022/06/02 04:23:19;;;;;;;16.12;11.12;;;;;;;;;;1898412;74;21052;-58
2022/06/02 04:25:52;;;;;;;8.50;5.28;;;;;;;;;;1898068;75;21146;-58
2022/06/02 04:28:25;;;;;;;15.50;6.30;;;;;;;;;;1898359;74;21037;-58
2022/06/02 04:31:01;;;;;;;9.38;5.87;;;;;;;;;;1897893;74;21103;-58
2022/06/02 04:33:37;;;;;;;12.33;5.75;;;;;;;;;;1898293;75;21065;-59
2022/06/02 04:36:23;;;;;;;9.90;5.45;;;;;;;;;;1898313;75;21545;-58
2022/06/02 04:39:12;;;;;;;10.53;6.45;;;;;;;;;;1898264;75;21118;-58
2022/06/02 04:41:54;;;;;;;9.68;5.28;;;;;;;;;;1898539;74;21091;-58
2022/06/02 04:44:24;;;;;;;8.38;4.78;;;;;;;;;;1898220;74;21451;-58
2022/06/02 04:47:00;;;;;;;10.08;5.17;;;;;;;;;;1898317;74;21118;-58
2022/06/02 04:49:30;;;;;;;11.25;5.45;;;;;;;;;;1898411;75;21098;-58
2022/06/02 04:52:02;;;;;;;9.40;5.50;;;;;;;;;;1898256;75;21137;-58
2022/06/02 04:54:47;;;;;;;9.03;5.10;;;;;;;;;;1897721;74;21033;-58
2022/06/02 04:57:15;;;;;;;;;;;;;;;;;;1900442;75;21110;-58
2022/06/02 04:59:57;;;;;;;10.28;6.17;;;;;;;;;;1898358;74;20408;-58
2022/06/02 05:02:33;;;;;;;14.13;5.10;;;;;;;;;;1897979;75;21165;-58
2022/06/02 05:05:08;;;;;;;8.78;4.60;;;;;;;;;;1897561;74;21150;-58
2022/06/02 05:07:47;;;;;;;10.53;5.35;;;;;;;;;;1897267;75;21138;-59
2022/06/02 05:10:26;;;;;;;13.20;4.80;;;;;;;;;;1896866;74;21040;-59
2022/06/02 05:13:02;;;;;;;9.63;5.12;;;;;;;;;;1898223;74;21056;-59
2022/06/02 05:15:32;;;;;;;11.68;5.40;;;;;;;;;;1898308;75;21024;-59
2022/06/02 05:18:08;;;;;;;8.58;5.62;;;;;;;;;;1896440;75;21033;-58
2022/06/02 05:20:54;;;;;;;10.28;5.45;;;;;;;;;;1898316;75;21106;-59
2022/06/02 05:23:42;;;;;;;7.92;5.85;;;;;;;;;;1898174;74;21110;-58
2022/06/02 05:26:21;;;;;;;11.63;5.90;;;;;;;;;;1891462;76;21061;-57
2022/06/02 05:28:51;;;;;;;14.28;6.67;;;;;;;;;;1850889;76;21515;-58
2022/06/02 05:31:37;;;;;;;13.32;6.95;;;;;;;;;;1891522;76;21049;-58
2022/06/02 05:34:09;;;;;;;18.60;6.62;;;;;;;;;;1891530;76;21126;-58
2022/06/02 05:36:48;;;;;;;16.73;7.35;;;;;;;;;;1891720;76;21052;-58
2022/06/02 05:39:18;;;;;;;20.02;8.45;;;;;;;;;;1890494;76;21103;-58
2022/06/02 05:41:51;;;;;;;22.40;8.03;;;;;;;;;;1891806;76;21033;-58
2022/06/02 05:44:39;;;;;;;14.80;6.70;;;;;;;;;;1889010;76;21036;-58
2022/06/02 05:47:21;;;;;;;20.70;11.57;;;;;;;;;;1891657;76;21049;-58
2022/06/02 05:50:02;;;;;;;31.23;15.03;;;;;;;;;;1891644;76;20993;-58
2022/06/02 05:52:50;;;;;;;31.62;13.13;;;;;;;;;;1890408;76;21057;-57
2022/06/02 05:55:23;;;;;;;24.60;14.30;;;;;;;;;;1890743;76;21053;-58
2022/06/02 05:57:53;;;;;;;24.15;10.98;;;;;;;;;;1890369;76;21033;-58
2022/06/02 06:00:25;;;;;;;29.30;12.30;;;;;;;;;;1884828;76;21147;-58
2022/06/02 06:02:58;;;;;;;27.70;14.63;;;;;;;;;;1891509;76;21525;-58
2022/06/02 06:05:28;;;;;;;41.02;16.90;;;;;;;;;;1891426;76;21118;-58
2022/06/02 06:08:15;;;;;;;17.02;9.70;;;;;;;;;;1891490;76;21107;-59
2022/06/02 06:11:00;;;;;;;19.85;9.95;;;;;;;;;;1891484;76;21119;-58
2022/06/02 06:13:30;;;;;;;28.50;11.03;;;;;;;;;;1891453;76;21030;-58
2022/06/02 06:16:06;;;;;;;23.32;11.48;;;;;;;;;;1890927;74;21127;-59
2022/06/02 06:18:54;;;;;;;25.02;10.88;;;;;;;;;;1891037;76;21139;-58
2022/06/02 06:21:24;;;;;;;24.18;10.45;;;;;;;;;;1891684;76;21021;-58
2022/06/02 06:24:11;;;;;;;27.13;12.18;;;;;;;;;;1891305;76;21048;-58
2022/06/02 06:26:45;;;;;;;23.85;10.93;;;;;;;;;;1909280;75;21010;-58
2022/06/02 06:29:24;;;;;;;29.63;12.45;;;;;;;;;;1909514;75;21018;-58
2022/06/02 06:32:10;;;;;;;21.27;10.50;;;;;;;;;;1840541;75;21527;-58
2022/06/02 06:34:57;;;;;;;28.12;9.98;;;;;;;;;;1909462;75;21216;-58
2022/06/02 06:37:43;;;;;;;24.43;10.70;;;;;;;;;;1909441;75;21061;-58
2022/06/02 06:40:13;;;;;;;21.02;8.05;;;;;;;;;;1909376;75;21041;-58
2022/06/02 06:42:52;;;;;;;19.52;5.83;;;;;;;;;;1905248;75;21422;-58
2022/06/02 06:45:22;;;;;;;14.53;5.80;;;;;;;;;;1909378;75;21103;-58
2022/06/02 06:47:52;;;;;;;14.28;7.10;;;;;;;;;;1909311;75;21095;-58
2022/06/02 06:50:22;;;;;;;10.38;5.15;;;;;;;;;;1907957;75;21026;-58
2022/06/02 06:52:58;;;;;;;16.30;5.28;;;;;;;;;;1909445;75;21042;-59
2022/06/02 06:55:36;;;;;;;11.35;6.03;;;;;;;;;;1909114;75;21069;-58
2022/06/02 06:58:07;;;;;;;13.65;5.85;;;;;;;;;;1909245;75;21046;-58
2022/06/02 07:00:46;;;;;;;14.45;5.72;;;;;;;;;;1907963;75;21094;-58
2022/06/02 07:03:29;;;;;;;12.53;5.40;;;;;;;;;;1909372;75;21344;-58
2022/06/02 07:05:59;;;;;;;21.90;6.35;;;;;;;;;;1887124;75;21045;-58
2022/06/02 07:08:32;;;;;;;12.18;5.80;;;;;;;;;;1906889;75;21099;-58
2022/06/02 07:14:06;;;;;;;14.00;7.37;;;;;;;;;;1909262;75;21107;-58
2022/06/02 07:16:39;;;;;;;15.25;6.28;;;;;;;;;;1908388;75;21030;-59
2022/06/02 07:19:09;;;;;;;11.43;5.78;;;;;;;;;;1909116;75;21321;-58
2022/06/02 07:21:45;;;;;;;12.58;7.25;;;;;;;;;;1909259;75;21026;-58
2022/06/02 07:24:32;;;;;;;13.32;6.83;;;;;;;;;;1908940;75;21140;-59
2022/06/02 07:27:05;;;;;;;15.00;6.47;;;;;;;;;;1909317;75;21034;-58
2022/06/02 07:29:51;;;;;;;20.95;6.35;;;;;;;;;;1909277;75;21045;-58
2022/06/02 07:32:24;;;;;;;16.97;5.80;;;;;;;;;;1909343;75;21045;-58
2022/06/02 07:35:04;;;;;;;14.58;5.90;;;;;;;;;;1908519;75;21069;-59
2022/06/02 07:37:37;;;;;;;14.85;6.45;;;;;;;;;;1907909;75;21002;-59
2022/06/02 07:40:16;;;;;;;12.28;5.42;;;;;;;;;;1889471;75;21065;-59
2022/06/02 07:42:49;;;;;;;14.25;5.37;;;;;;;;;;1908390;75;21042;-59
2022/06/02 07:45:22;;;;;;;21.23;7.20;;;;;;;;;;1897593;74;21092;-57
2022/06/02 07:47:54;;;;;;;7.92;5.60;;;;;;;;;;1883245;75;21099;-57
2022/06/02 07:50:25;;;;;;;19.23;6.95;;;;;;;;;;1871592;76;21002;-58
2022/06/02 07:52:54;;;;;;;16.17;6.90;;;;;;;;;;1892144;75;21130;-58
2022/06/02 07:55:27;;;;;;;14.40;6.55;;;;;;;;;;1898020;75;21018;-58
2022/06/02 07:58:06;;;;;;;10.90;5.67;;;;;;;;;;1902796;75;21130;-58
2022/06/02 08:00:42;;;;;;;9.43;5.20;;;;;;;;;;1890134;75;21006;-58
2022/06/02 08:03:17;;;;;;;8.05;5.60;;;;;;;;;;1889196;76;21026;-58
2022/06/02 08:06:06;;;;;;;11.57;6.20;;;;;;;;;;1887689;76;21608;-58
2022/06/02 08:08:39;;;;;;;12.35;5.60;;;;;;;;;;1903881;75;21131;-58
2022/06/02 08:11:23;;;;;;;15.32;5.17;;;;;;;;;;1903697;75;21014;-58
2022/06/02 08:13:56;;;;;;;11.55;5.20;;;;;;;;;;1875651;76;21103;-58
2022/06/02 08:16:43;;;;;;;11.33;5.55;;;;;;;;;;1875602;76;20997;-58
2022/06/02 08:19:13;;;;;;;9.25;5.08;;;;;;;;;;1892415;75;21013;-59
2022/06/02 08:21:55;;;;;;;13.38;5.15;;;;;;;;;;1872759;75;21190;-59
2022/06/02 08:24:40;;;;;;;16.37;6.30;;;;;;;;;;1894742;75;21029;-60
2022/06/02 08:27:13;;;;;;;14.83;5.80;;;;;;;;;;1910007;74;21100;-61
2022/06/02 08:30:02;;;;;;;11.55;5.78;;;;;;;;;;1912235;75;21103;-60
2022/06/02 08:32:35;;;;;;;17.02;6.20;;;;;;;;;;1920653;75;21037;-60
2022/06/02 08:35:04;;;;;;;13.22;4.95;;;;;;;;;;1920490;75;21017;-60
2022/06/02 08:37:51;;;;;;;8.78;4.80;;;;;;;;;;1920354;75;21127;-60
2022/06/02 08:40:39;;;;;;;22.48;6.83;;;;;;;;;;1899548;75;21033;-59
2022/06/02 08:43:26;;;;;;;12.40;5.55;;;;;;;;;;1881275;76;21049;-60
2022/06/02 08:45:58;;;;;;;8.10;5.20;;;;;;;;;;1888656;75;21103;-58
2022/06/02 08:48:47;;;;;;;14.20;5.70;;;;;;;;;;1891947;75;21013;-60
2022/06/02 08:51:17;;;;;;;17.30;5.20;;;;;;;;;;1911523;73;21041;-61
2022/06/02 08:53:59;;;;;;;13.50;4.72;;;;;;;;;;1908491;75;21010;-59
2022/06/02 08:56:48;;;;;;;8.65;5.20;;;;;;;;;;1920345;75;21014;-59
2022/06/02 08:59:29;;;;;;;9.18;4.42;;;;;;;;;;1915003;75;21052;-60
2022/06/02 09:02:05;;;;;;;12.68;5.20;;;;;;;;;;1903908;75;21115;-58
2022/06/02 09:04:35;;;;;;;16.27;5.37;;;;;;;;;;1920147;75;21115;-62
2022/06/02 09:07:21;;;;;;;12.85;5.10;;;;;;;;;;1920394;75;20997;-59
2022/06/02 09:09:53;;;;;;;12.90;5.25;;;;;;;;;;1885258;76;21089;-60
2022/06/02 09:12:25;;;;;;;8.45;4.22;;;;;;;;;;1884319;76;21081;-61
2022/06/02 09:14:55;;;;;;;9.95;4.58;;;;;;;;;;1836822;76;21006;-61
2022/06/02 09:17:35;;;;;;;9.13;4.55;;;;;;;;;;1885874;76;21014;-60
2022/06/02 09:20:08;;;;;;;12.82;4.50;;;;;;;;;;1885707;76;21025;-61
2022/06/02 09:22:37;;;;;;;13.05;3.90;;;;;;;;;;1885950;76;21088;-62
2022/06/02 09:25:07;;;;;;;9.38;4.10;;;;;;;;;;1886053;76;21139;-61
2022/06/02 09:27:47;;;;;;;9.08;4.33;;;;;;;;;;1897366;75;21112;-61
2022/06/02 09:30:17;;;;;;;5.42;4.53;;;;;;;;;;1898951;75;21025;-62
2022/06/02 09:32:52;;;;;;;23.10;5.42;;;;;;;;;;1898762;75;21127;-62
2022/06/02 09:35:22;;;;;;;19.02;5.20;;;;;;;;;;1898625;75;21229;-61
2022/06/02 09:38:07;;;;;;;6.62;4.03;;;;;;;;;;1898899;75;21096;-59
2022/06/02 09:40:47;;;;;;;13.18;4.30;;;;;;;;;;1898142;75;21182;-62
2022/06/02 09:43:36;;;;;;;9.08;4.28;;;;;;;;;;1898644;75;21041;-62
2022/06/02 09:46:18;;;;;;;6.95;3.15;;;;;;;;;;1898814;75;21029;-60
2022/06/02 09:49:04;;;;;;;11.45;4.25;;;;;;;;;;1898755;75;21084;-60
2022/06/02 09:51:35;;;;;;;4.50;2.75;;;;;;;;;;1898740;75;21097;-60
2022/06/02 09:54:07;;;;;;;11.55;3.77;;;;;;;;;;1898731;75;21045;-61
2022/06/02 09:56:55;;;;;;;16.97;4.20;;;;;;;;;;1898075;75;21170;-58
2022/06/02 09:59:25;;;;;;;8.55;4.20;;;;;;;;;;1898985;75;21103;-58
2022/06/02 10:01:58;;;;;;;6.30;3.65;;;;;;;;;;1897478;75;21033;-58
2022/06/02 10:04:43;;;;;;;13.83;3.80;;;;;;;;;;1898631;75;21138;-58
2022/06/02 10:07:29;;;;;;;15.58;4.05;;;;;;;;;;1899002;75;21198;-59
2022/06/02 10:10:11;;;;;;;9.55;3.33;;;;;;;;;;1898931;75;21045;-58
2022/06/02 10:12:58;;;;;;;10.50;4.55;;;;;;;;;;1898848;75;21065;-59
2022/06/02 10:15:43;;;;;;;11.35;3.80;;;;;;;;;;1898969;75;21088;-58
2022/06/02 10:18:25;;;;;;;9.73;4.15;;;;;;;;;;1898861;75;21135;-59
2022/06/02 10:20:57;;;;;;;13.88;4.80;;;;;;;;;;1897595;75;21061;-58
2022/06/02 10:23:27;;;;;;;10.55;3.55;;;;;;;;;;1898204;75;21053;-58
2022/06/02 10:26:06;;;;;;;7.08;3.70;;;;;;;;;;1896591;75;21033;-59
2022/06/02 10:28:48;;;;;;;11.10;3.62;;;;;;;;;;1898082;75;21005;-60
2022/06/02 10:31:34;;;;;;;8.55;3.80;;;;;;;;;;1896898;75;21104;-60
2022/06/02 10:34:04;;;;;;;8.18;3.50;;;;;;;;;;1898942;75;21093;-59
2022/06/02 10:36:50;;;;;;;6.65;3.22;;;;;;;;;;1896315;75;21025;-60
2022/06/02 10:39:30;;;;;;;9.18;3.40;;;;;;;;;;1898893;75;21085;-60
2022/06/02 10:42:03;;;;;;;8.43;3.95;;;;;;;;;;1898728;75;21162;-60
2022/06/02 10:44:39;;;;;;;10.00;3.98;;;;;;;;;;1897419;75;21200;-61
2022/06/02 10:47:12;;;;;;;9.20;4.15;;;;;;;;;;1895989;75;21101;-63
2022/06/02 10:49:42;;;;;;;9.00;3.52;;;;;;;;;;1896358;75;21061;-60
2022/06/02 10:52:29;;;;;;;6.42;4.72;;;;;;;;;;1898799;75;21064;-60
2022/06/02 10:55:16;;;;;;;7.28;4.67;;;;;;;;;;1898832;75;21028;-61
2022/06/02 10:58:03;;;;;;;9.50;4.08;;;;;;;;;;1899106;75;21044;-62
2022/06/02 11:00:49;;;;;;;7.83;3.85;;;;;;;;;;1899076;75;21107;-60
2022/06/02 11:03:25;;;;;;;13.10;5.83;;;;;;;;;;1898833;75;21126;-64
2022/06/02 11:06:01;;;;;;;13.45;5.50;;;;;;;;;;1899403;75;21025;-60
2022/06/02 11:08:34;;;;;;;5.87;3.70;;;;;;;;;;1899585;75;21138;-60
2022/06/02 11:11:10;;;;;;;9.15;3.65;;;;;;;;;;1900116;75;21025;-60
2022/06/02 11:13:57;;;;;;;14.38;4.33;;;;;;;;;;1899549;75;21029;-60
2022/06/02 11:16:30;;;;;;;9.00;3.85;;;;;;;;;;1899669;75;21134;-60
2022/06/02 11:19:15;;;;;;;12.18;3.75;;;;;;;;;;1899718;75;21005;-60
2022/06/02 11:22:01;;;;;;;19.25;4.72;;;;;;;;;;1897111;75;21029;-60
2022/06/02 11:24:34;;;;;;;6.80;4.35;;;;;;;;;;1899695;75;21045;-60
2022/06/02 11:27:04;;;;;;;10.18;4.60;;;;;;;;;;1899474;75;21069;-59
2022/06/02 11:29:34;;;;;;;9.40;4.35;;;;;;;;;;1899650;75;21087;-60
2022/06/02 11:32:17;;;;;;;7.92;4.15;;;;;;;;;;1849902;76;21584;-60
2022/06/02 11:35:04;;;;;;;10.55;4.50;;;;;;;;;;1858995;77;21039;-60
2022/06/02 11:37:43;;;;;;;11.88;4.45;;;;;;;;;;1859053;77;21121;-60
2022/06/02 11:40:19;;;;;;;20.25;4.85;;;;;;;;;;1859159;77;21035;-60
2022/06/02 11:42:49;;;;;;;9.33;3.90;;;;;;;;;;1858739;77;21152;-60
2022/06/02 11:45:24;;;;;;;9.90;4.33;;;;;;;;;;1858694;77;21117;-60
2022/06/02 11:47:57;;;;;;;10.53;3.87;;;;;;;;;;1858306;76;21490;-60
2022/06/02 11:50:36;;;;;;;11.83;4.78;;;;;;;;;;1858260;76;21019;-60
2022/06/02 11:53:06;;;;;;;11.57;4.72;;;;;;;;;;1858925;77;21067;-60
2022/06/02 11:55:45;;;;;;;13.35;4.08;;;;;;;;;;1858935;77;21040;-60
2022/06/02 11:58:15;;;;;;;7.20;3.67;;;;;;;;;;1858620;77;21043;-60
2022/06/02 12:01:01;;;;;;;11.85;3.85;;;;;;;;;;1858591;77;21114;-60
2022/06/02 12:03:48;;;;;;;10.68;4.03;;;;;;;;;;1858854;77;21063;-60
2022/06/02 12:06:24;;;;;;;5.45;3.65;;;;;;;;;;1858882;77;21051;-60
2022/06/02 12:09:11;;;;;;;15.05;4.50;;;;;;;;;;1858571;76;21043;-60
2022/06/02 12:11:59;;;;;;;11.97;4.25;;;;;;;;;;1858992;77;21059;-60
2022/06/02 12:14:32;;;;;;;13.50;4.37;;;;;;;;;;1859154;77;21091;-60
2022/06/02 12:17:07;;;;;;;9.78;3.98;;;;;;;;;;1858946;77;21015;-60
2022/06/02 12:19:43;;;;;;;6.83;3.60;;;;;;;;;;1840197;77;21145;-60
2022/06/02 12:22:13;;;;;;;10.20;4.20;;;;;;;;;;1840146;77;21039;-60
2022/06/02 12:24:46;;;;;;;15.13;5.15;;;;;;;;;;1858861;77;21126;-59
2022/06/02 12:27:25;;;;;;;10.50;4.53;;;;;;;;;;1836849;77;21180;-59
2022/06/02 12:30:01;;;;;;;11.18;4.37;;;;;;;;;;1859069;77;21231;-59
2022/06/02 12:32:34;;;;;;;7.50;3.83;;;;;;;;;;1851788;76;21071;-59
2022/06/02 12:35:10;;;;;;;15.48;3.92;;;;;;;;;;1842435;77;21024;-59
2022/06/02 12:37:42;;;;;;;13.62;4.12;;;;;;;;;;1850794;77;21032;-59
2022/06/02 12:40:18;;;;;;;7.83;3.50;;;;;;;;;;1850655;77;21063;-59
2022/06/02 12:42:51;;;;;;;10.00;3.83;;;;;;;;;;1850818;77;21075;-59
2022/06/02 12:45:38;;;;;;;12.13;4.03;;;;;;;;;;1850716;77;21097;-60
2022/06/02 12:48:14;;;;;;;11.55;4.30;;;;;;;;;;1850565;77;21118;-59
2022/06/02 12:50:44;;;;;;;7.05;3.77;;;;;;;;;;1850337;76;21503;-59
2022/06/02 12:53:13;;;;;;;12.82;4.03;;;;;;;;;;1850660;77;21125;-59
2022/06/02 12:56:02;;;;;;;8.18;3.33;;;;;;;;;;1850130;77;21164;-59
2022/06/02 12:58:47;;;;;;;10.30;3.85;;;;;;;;;;1850577;77;21040;-59
2022/06/02 13:01:35;;;;;;;17.70;4.67;;;;;;;;;;1850524;77;21110;-60
2022/06/02 13:04:14;;;;;;;9.75;3.60;;;;;;;;;;1850444;77;21067;-60
2022/06/02 13:07:01;;;;;;;16.73;3.98;;;;;;;;;;1850269;77;21043;-60
2022/06/02 13:09:47;;;;;;;8.28;3.75;;;;;;;;;;1850463;77;21204;-60
2022/06/02 13:12:20;;;;;;;11.97;3.70;;;;;;;;;;1850430;77;21063;-60
2022/06/02 13:14:56;;;;;;;9.13;3.33;;;;;;;;;;1850420;77;21141;-60
2022/06/02 13:17:29;;;;;;;9.68;3.50;;;;;;;;;;1850585;77;21114;-60
2022/06/02 13:20:15;;;;;;;12.47;3.42;;;;;;;;;;1850575;77;21138;-60
2022/06/02 13:22:58;;;;;;;9.95;3.62;;;;;;;;;;1850659;77;21126;-61
2022/06/02 13:25:28;;;;;;;7.97;3.35;;;;;;;;;;1827378;77;21031;-61
2022/06/02 13:28:00;;;;;;;11.65;4.70;;;;;;;;;;1850654;77;21126;-61
2022/06/02 13:30:47;;;;;;;7.47;3.55;;;;;;;;;;1850656;77;21028;-61
2022/06/02 13:33:20;;;;;;;10.35;3.72;;;;;;;;;;1850518;76;21149;-60
2022/06/02 13:35:53;;;;;;;7.78;3.22;;;;;;;;;;1850847;77;21097;-60
2022/06/02 13:38:35;;;;;;;13.05;3.40;;;;;;;;;;1850845;77;21125;-60
2022/06/02 13:41:23;;;;;;;9.98;3.20;;;;;;;;;;1850519;77;21031;-60
2022/06/02 13:44:11;;;;;;;13.98;3.98;;;;;;;;;;1850523;77;21059;-60
2022/06/02 13:46:41;;;;;;;11.70;3.67;;;;;;;;;;1850454;77;21059;-60
2022/06/02 13:49:28;;;;;;;9.93;3.83;;;;;;;;;;1850233;77;21102;-60
2022/06/02 13:52:13;;;;;;;9.10;4.53;;;;;;;;;;1850454;77;21059;-60
2022/06/02 13:57:31;;;;;;;7.90;3.27;;;;;;;;;;1850568;77;21059;-61
2022/06/02 14:00:20;;;;;;;11.78;3.12;;;;;;;;;;1828913;77;21036;-61
2022/06/02 14:02:56;;;;;;;7.78;3.08;;;;;;;;;;1850472;77;21183;-61
2022/06/02 14:05:32;;;;;;;7.90;3.40;;;;;;;;;;1850415;77;21040;-61
2022/06/02 14:08:19;;;;;;;6.95;3.55;;;;;;;;;;1850414;77;21068;-62
2022/06/02 14:10:52;;;;;;;13.28;3.90;;;;;;;;;;1850514;77;21169;-61
2022/06/02 14:13:24;;;;;;;18.30;5.62;;;;;;;;;;1850438;77;21098;-62
2022/06/02 14:15:59;;;;;;;9.33;3.33;;;;;;;;;;1850516;77;21067;-61
2022/06/02 14:18:25;;;;;;;9.45;3.52;;;;;;;;;;1850764;76;21036;-61
2022/06/02 14:20:55;;;;;;;8.80;3.72;;;;;;;;;;1850462;77;21147;-61
2022/06/02 14:23:31;;;;;;;12.70;3.50;;;;;;;;;;1850564;77;21475;-61
2022/06/02 14:26:04;;;;;;;7.05;3.05;;;;;;;;;;1850109;77;21079;-61
2022/06/02 14:28:40;;;;;;;7.65;3.30;;;;;;;;;;1850445;77;21071;-61
2022/06/02 14:31:26;;;;;;;10.18;4.65;;;;;;;;;;1850474;76;21075;-62
2022/06/02 14:34:00;;;;;;;13.25;3.62;;;;;;;;;;1850618;77;21027;-61
2022/06/02 14:36:29;;;;;;;6.75;2.60;;;;;;;;;;1830435;77;21557;-61
2022/06/02 14:39:02;;;;;;;6.08;2.77;;;;;;;;;;1850077;76;21067;-61
2022/06/02 14:41:32;;;;;;;10.82;3.12;;;;;;;;;;1850664;77;21040;-61
2022/06/02 14:44:08;;;;;;;9.38;2.60;;;;;;;;;;1840442;77;21102;-61
2022/06/02 14:46:46;;;;;;;9.78;3.17;;;;;;;;;;1850406;77;21071;-61
2022/06/02 14:49:23;;;;;;;5.60;2.70;;;;;;;;;;1850550;77;21039;-62
2022/06/02 14:51:56;;;;;;;5.40;2.90;;;;;;;;;;1850708;77;21129;-62
2022/06/02 14:54:35;;;;;;;10.93;2.52;;;;;;;;;;1847504;77;21067;-62
2022/06/02 14:57:21;;;;;;;9.68;3.15;;;;;;;;;;1850487;77;21560;-62
2022/06/02 15:00:01;;;;;;;6.62;2.80;;;;;;;;;;1850601;77;21044;-61
2022/06/02 15:02:47;;;;;;;7.97;2.95;;;;;;;;;;1850480;76;21047;-62
2022/06/02 15:05:17;;;;;;;5.00;2.40;;;;;;;;;;1850595;77;21126;-62
2022/06/02 15:07:51;;;;;;;4.53;2.52;;;;;;;;;;1850469;76;21106;-61
2022/06/02 15:10:19;;;;;;;;;;;;;;;;;;1853505;77;21059;-61
2022/06/02 15:13:05;;;;;;;12.05;2.98;;;;;;;;;;1850595;77;20166;-61
2022/06/02 15:15:53;;;;;;;7.35;3.08;;;;;;;;;;1850628;77;21063;-61
2022/06/02 15:18:40;;;;;;;7.03;3.22;;;;;;;;;;1850592;77;21056;-60
2022/06/02 15:21:16;;;;;;;12.40;3.45;;;;;;;;;;1865789;76;21072;-59
2022/06/02 15:23:52;;;;;;;7.33;2.65;;;;;;;;;;1865796;76;21052;-59
2022/06/02 15:26:39;;;;;;;6.35;2.72;;;;;;;;;;1865862;76;21030;-59
2022/06/02 15:29:09;;;;;;;6.37;2.95;;;;;;;;;;1865720;77;21081;-59
2022/06/02 15:31:51;;;;;;;8.00;2.77;;;;;;;;;;1865047;76;21363;-59
2022/06/02 15:34:21;;;;;;;8.20;3.65;;;;;;;;;;1865784;76;21126;-59
2022/06/02 15:36:54;;;;;;;12.65;4.10;;;;;;;;;;1864361;76;21032;-59
2022/06/02 15:39:39;;;;;;;16.00;3.33;;;;;;;;;;1863445;76;21037;-59
2022/06/02 15:42:15;;;;;;;8.98;3.70;;;;;;;;;;1863790;76;21032;-59
2022/06/02 15:45:02;;;;;;;7.87;3.08;;;;;;;;;;1865750;76;21108;-59
2022/06/02 15:47:41;;;;;;;12.93;3.58;;;;;;;;;;1865749;76;21052;-59